メインページ
METAR-TAF:

METAR-TAF

空港 :

ロングイェールビーン, ノルウェー

緯度: 78-15N, 経度: 015-28E, 海抜: 2m

現時点の気象観測

当レポートは35分前の05:50(UTC)に作成
東/北東の風 18kt
気温 -3°C
湿度 80%
気圧 994 hPa
視程10km以上
小雪

METAR: ENSB 140550Z 07018KT 9999 -SN VV020 M03/M06 Q0994 RMK WIND 1400FT 07015KT

時間: 07:25 (06:25 UTC)

予報

予報は14日の 06時(UTC)から 15日の 06時(UTC)まで有効
東/南東の風 12kt
視程10km以上
高度2500ftの千切れ雲あり
14日の 06時(UTC)から 14日の 15時(UTC)まで一時的に
東/北東の風 20kt、最大30ktの突風を伴う

TAF: ENSB 1406/1506 12012KT 9999 BKN025 TEMPO 1406/1415 07020G30KT

4,000以上の空港の気象観測と天気予報(METAR報とTAF報)

利用可能な観測所は地図上に黄色い丸と赤い丸で示す。

丸の上にカーソルを重ねると観測所名を参照できる。

次にクリックすると気象観測と天気予報を参照できる。

マップの切り替え:黒色「×」印の緑ボタンをクリックして拡大、「-」印の緑ボタンをクリックして縮小、緑色の三角印をクリックして隣りの地図に切り替え


METAR-TAF: